Overview Statistics Trail Chart Weather Telemetry Raw packets
 

This is the latest recevied weather packets stored in our database for station/object KI4NG. If no packets are shown the sender has not sent any weather packets the latest 10 day(s).

<< 1 2 3 4 5 >>
Time Temp. Humidity Pressure Rain* Wind** Luminosity Snow
1788627958 29.44° C 81% 1017.3 hPa 0 mm - 661 W/m² -
1788627654 29.44° C 77% 1017.2 hPa 0 mm - 696 W/m² -
1788627348 29.44° C 80% 1017.5 hPa 0 mm - 691 W/m² -
1788627043 28.89° C 80% 1017.6 hPa 0 mm - 686 W/m² -
1788626744 28.33° C 80% 1017.4 hPa 0 mm - 695 W/m² -
1788626438 27.78° C 85% 1017.4 hPa 0 mm - 684 W/m² -
1788626134 27.22° C 92% 1017.7 hPa 0 mm - 471 W/m² -
1788625830 26.11° C 92% 1017.6 hPa 0 mm - 598 W/m² -
1788625527 25.56° C 94% 1017.8 hPa 0 mm - 409 W/m² -
1788625221 25° C 95% 1017.8 hPa 0 mm - 138 W/m² -
1788624921 25° C 95% 1017.7 hPa 0 mm - 98 W/m² -
1788624618 25° C 96% 1017.6 hPa 0 mm - 83 W/m² -
1788624311 25.56° C 95% 1017.9 hPa 0 mm - 92 W/m² -
1788624006 25.56° C 95% 1018 hPa 0 mm - 102 W/m² -
1788623706 25.56° C 92% 1018 hPa 1.78 mm - 114 W/m² -
1788623404 26.67° C 89% 1018 hPa 1.78 mm - 118 W/m² -
1788623100 27.78° C 84% 1018.2 hPa 0 mm - 80 W/m² -
1788622795 28.33° C 79% 1017.9 hPa 0 mm - 102 W/m² -
1788622492 29.44° C 77% 1018 hPa 0 mm - 151 W/m² -
1788622191 29.44° C 78% 1017.9 hPa 0 mm - 393 W/m² -
1788621891 30° C 76% 1017.6 hPa 0 mm - 337 W/m² -
1788621586 29.44° C 78% 1017.5 hPa 0 mm - 723 W/m² -
1788621281 28.89° C 80% 1017.6 hPa 0 mm - 223 W/m² -
1788620976 28.33° C 80% 1017.5 hPa 0 mm - 267 W/m² -
1788620677 28.33° C 81% 1017.6 hPa 0 mm - 674 W/m² -

* Rain latest hour (hover to see other rain measurements)
** Current wind speed in m/s (hover to see current wind gust speed)